Tipton, Missouri
Current Conditions -  °F | °C
As of 8:35 AM on Thursday 23 Oct 2014 (Local Time) from KVER Reporting Station
Overcast Overcast  
Wind Chill: 12°   Ceiling: 2800
Heat Index: 12°   Visibility: 10mi
Dew Point:   Wind: 8mph
Humidity: 72%   Direction: 170°S
Pressure: 30.14"   Gusts: NA
Location:  38.66°N, 92.78°W
Report Text: KVER 231335Z AUTO 17007KT 10SM BKN028 OVC080 12/07 A3014 RMK AO2 T01180070
Loading
Personal Weather Stations






























Interactive Weather Map
Tropical Storm Tracking
New forecast layout! Learn more

10-Day Weather Forecast

Advertisements
Track Severe Weather on mobile